BCY245 EHRD-EGLC
Flight info
| Callsign | BCY245 |
|---|---|
| Flight time | N/A |
| Altitude | 18000 |
| Route | ABNED L980 XAMAN ODLEG1J/09 |
| Aircraft | RJ85/M-SDFGIRWY/LB1 |
Departure
| Time | N/A |
|---|---|
| Airport | Rotterdam The Hague Airport (EHRD) |
Arrival
| Time | 2026-05-01 07:41 |
|---|---|
| Airport | London City Airport (EGLC) |
| Time | Latitude | Longitude | Altitude | Speed | Heading |
|---|---|---|---|---|---|
| 2026-05-01 07:23 | 51.54581 | 1.09309 | 6395 ft | 230 kts | 235° |
| 2026-05-01 07:23 | 51.52811 | 1.05037 | 6138 ft | 229 kts | 234° |
| 2026-05-01 07:24 | 51.51924 | 1.02924 | 6055 ft | 226 kts | 234° |
| 2026-05-01 07:24 | 51.51048 | 1.00844 | 6032 ft | 224 kts | 234° |
| 2026-05-01 07:24 | 51.50195 | 0.98789 | 6031 ft | 224 kts | 234° |
| 2026-05-01 07:24 | 51.49324 | 0.96714 | 6031 ft | 224 kts | 234° |
| 2026-05-01 07:25 | 51.48458 | 0.94627 | 6031 ft | 224 kts | 234° |
| 2026-05-01 07:25 | 51.47618 | 0.92521 | 6023 ft | 224 kts | 243° |
| 2026-05-01 07:25 | 51.47369 | 0.90062 | 6040 ft | 228 kts | 269° |
| 2026-05-01 07:25 | 51.47434 | 0.87541 | 6040 ft | 230 kts | 270° |
| 2026-05-01 07:26 | 51.47532 | 0.84979 | 6041 ft | 230 kts | 271° |
| 2026-05-01 07:26 | 51.47661 | 0.82417 | 6037 ft | 230 kts | 272° |
| 2026-05-01 07:26 | 51.47795 | 0.79867 | 6036 ft | 230 kts | 272° |
| 2026-05-01 07:26 | 51.47936 | 0.77315 | 6035 ft | 230 kts | 272° |
| 2026-05-01 07:27 | 51.48057 | 0.74755 | 6031 ft | 230 kts | 271° |
| 2026-05-01 07:27 | 51.48171 | 0.72173 | 5885 ft | 234 kts | 271° |
| 2026-05-01 07:27 | 51.48277 | 0.69552 | 5644 ft | 235 kts | 271° |
| 2026-05-01 07:27 | 51.48382 | 0.66974 | 5400 ft | 234 kts | 271° |
| 2026-05-01 07:28 | 51.48488 | 0.64368 | 5153 ft | 233 kts | 271° |
| 2026-05-01 07:28 | 51.48590 | 0.61776 | 4910 ft | 232 kts | 270° |
| 2026-05-01 07:28 | 51.48679 | 0.59187 | 4653 ft | 232 kts | 270° |
| 2026-05-01 07:28 | 51.48764 | 0.56609 | 4390 ft | 231 kts | 271° |
| 2026-05-01 07:29 | 51.48859 | 0.54033 | 4171 ft | 230 kts | 271° |
| 2026-05-01 07:29 | 51.48955 | 0.51492 | 4059 ft | 226 kts | 271° |
| 2026-05-01 07:29 | 51.49037 | 0.48996 | 4030 ft | 223 kts | 270° |
| 2026-05-01 07:29 | 51.48985 | 0.46529 | 4023 ft | 219 kts | 249° |
| 2026-05-01 07:30 | 51.48301 | 0.44380 | 4032 ft | 217 kts | 237° |
| 2026-05-01 07:30 | 51.47543 | 0.42271 | 4057 ft | 218 kts | 237° |
| 2026-05-01 07:30 | 51.46778 | 0.40200 | 4053 ft | 218 kts | 236° |
| 2026-05-01 07:30 | 51.45987 | 0.38123 | 4041 ft | 218 kts | 236° |
| 2026-05-01 07:31 | 51.45189 | 0.36032 | 3893 ft | 219 kts | 236° |
| 2026-05-01 07:31 | 51.43049 | 0.29724 | 3410 ft | 214 kts | 262° |
| 2026-05-01 07:32 | 51.43106 | 0.24991 | 3155 ft | 210 kts | 269° |
| 2026-05-01 07:32 | 51.43167 | 0.22665 | 3079 ft | 207 kts | 270° |
| 2026-05-01 07:33 | 51.43323 | 0.18132 | 3014 ft | 201 kts | 271° |
| 2026-05-01 07:33 | 51.43381 | 0.16666 | 3053 ft | 197 kts | 272° |
| 2026-05-01 07:33 | 51.43572 | 0.12359 | 3139 ft | 194 kts | 271° |
| 2026-05-01 07:34 | 51.43655 | 0.10257 | 3098 ft | 187 kts | 271° |
| 2026-05-01 07:34 | 51.43804 | 0.06061 | 3062 ft | 188 kts | 270° |
| 2026-05-01 07:34 | 51.43872 | 0.03973 | 3038 ft | 187 kts | 270° |
| 2026-05-01 07:35 | 51.43943 | 0.01873 | 2991 ft | 190 kts | 270° |
| 2026-05-01 07:35 | 51.44011 | -0.00243 | 2853 ft | 190 kts | 270° |
| 2026-05-01 07:35 | 51.44079 | -0.02273 | 2720 ft | 176 kts | 269° |
| 2026-05-01 07:35 | 51.44139 | -0.04197 | 2574 ft | 171 kts | 269° |
| 2026-05-01 07:36 | 51.44200 | -0.06105 | 2434 ft | 172 kts | 269° |
| 2026-05-01 07:36 | 51.44254 | -0.08009 | 2346 ft | 170 kts | 268° |
| 2026-05-01 07:36 | 51.44645 | -0.09783 | 2219 ft | 175 kts | 310° |
| 2026-05-01 07:36 | 51.45645 | -0.10803 | 2162 ft | 173 kts | 334° |
| 2026-05-01 07:37 | 51.47939 | -0.11947 | 2032 ft | 167 kts | 343° |
| 2026-05-01 07:37 | 51.49020 | -0.12202 | 1999 ft | 152 kts | 14° |
| 2026-05-01 07:37 | 51.49932 | -0.11374 | 1998 ft | 152 kts | 38° |
| 2026-05-01 07:38 | 51.50741 | -0.10313 | 2004 ft | 148 kts | 52° |
| 2026-05-01 07:38 | 51.51051 | -0.08845 | 2032 ft | 139 kts | 101° |
| 2026-05-01 07:38 | 51.50892 | -0.05755 | 2067 ft | 128 kts | 98° |
| 2026-05-01 07:39 | 51.50834 | -0.04362 | 2025 ft | 122 kts | 99° |
| 2026-05-01 07:39 | 51.50774 | -0.02948 | 1702 ft | 130 kts | 98° |
| 2026-05-01 07:39 | 51.50679 | -0.00093 | 1054 ft | 128 kts | 95° |
| 2026-05-01 07:40 | 51.50656 | 0.01304 | 747 ft | 125 kts | 94° |
| 2026-05-01 07:40 | 51.50605 | 0.02663 | 420 ft | 121 kts | 95° |
| 2026-05-01 07:40 | 51.50571 | 0.03989 | 150 ft | 117 kts | 91° |
| 2026-05-01 07:40 | 51.50534 | 0.05222 | 29 ft | 99 kts | 92° |
| 2026-05-01 07:41 | 51.50507 | 0.06095 | 22 ft | 46 kts | 93° |
| 2026-05-01 07:41 | 51.50493 | 0.06300 | 27 ft | 9 kts | 129° |
| 2026-05-01 07:41 | 51.50433 | 0.06353 | 27 ft | 4 kts | 172° |
| 2026-05-01 07:42 | 51.50406 | 0.06318 | 26 ft | 6 kts | 248° |
| 2026-05-01 07:42 | 51.50401 | 0.06249 | 26 ft | 6 kts | 271° |
| 2026-05-01 07:42 | 51.50406 | 0.06174 | 25 ft | 7 kts | 274° |
| 2026-05-01 07:42 | 51.50410 | 0.06079 | 22 ft | 10 kts | 272° |
| 2026-05-01 07:43 | 51.50411 | 0.05970 | 22 ft | 10 kts | 276° |
| 2026-05-01 07:43 | 51.50418 | 0.05874 | 25 ft | 7 kts | 273° |
| 2026-05-01 07:43 | 51.50430 | 0.05662 | 23 ft | 15 kts | 274° |
| 2026-05-01 07:44 | 51.50445 | 0.05287 | 27 ft | 14 kts | 275° |
| 2026-05-01 07:44 | 51.50462 | 0.04990 | 27 ft | 11 kts | 272° |
| 2026-05-01 07:45 | 51.50451 | 0.04911 | 28 ft | 6 kts | 193° |
| 2026-05-01 07:45 | 51.50429 | 0.04902 | 28 ft | 1 kts | 252° |
| 2026-05-01 07:45 | 51.50429 | 0.04897 | 28 ft | 0 kts | 279° |
| 2026-05-01 07:45 | 51.50432 | 0.04891 | 28 ft | 0 kts | 316° |
| 2026-05-01 07:46 | 51.50434 | 0.04888 | 28 ft | 0 kts | 316° |